Time;durP1;ratioP1;P1;durP2;ratioP2;P2;SDS_P1;SDS_P2;PMS_P1;PMS_P2;Temp;Humidity;BMP_temperature;BMP_pressure;BME280_temperature;BME280_humidity;BME280_pressure;Samples;Min_cycle;Max_cycle;Signal;HPM_P1;HPM_P2
2023/10/07 00:00:52;;;;;;;6.05;4.45;;;;;;;13.45;62.11;95807.69;5157845;27;20197;-69
2023/10/07 00:03:20;;;;;;;4.82;4.32;;;;;;;13.41;62.39;95809.56;5158136;27;20189;-69
2023/10/07 00:05:47;;;;;;;6.78;4.53;;;;;;;13.42;62.27;95809.19;5158116;27;20242;-68
2023/10/07 00:08:19;;;;;;;5.03;4.15;;;;;;;13.42;62.15;95802.84;5158266;27;20677;-68
2023/10/07 00:10:49;;;;;;;4.50;4.10;;;;;;;13.41;62.24;95802.03;5158323;27;20685;-69
2023/10/07 00:13:22;;;;;;;9.05;4.68;;;;;;;13.36;62.58;95799.53;5123163;27;20542;-69
2023/10/07 00:15:51;;;;;;;5.57;4.65;;;;;;;13.37;62.54;95792.03;5157735;27;20197;-68
2023/10/07 00:18:19;;;;;;;5.35;4.55;;;;;;;13.37;62.68;95792.03;5158397;27;20218;-68
2023/10/07 00:20:51;;;;;;;5.78;4.07;;;;;;;13.37;62.57;95792.84;5140227;27;20593;-69
2023/10/07 00:23:21;;;;;;;5.28;4.22;;;;;;;13.40;62.60;95791.34;5157895;27;20568;-68
2023/10/07 00:25:50;;;;;;;5.15;4.57;;;;;;;13.38;62.54;95791.66;5158043;27;20202;-69
2023/10/07 00:28:28;;;;;;;5.43;4.13;;;;;;;13.33;62.85;95783.63;5157443;27;20202;-69
2023/10/07 00:31:02;;;;;;;6.43;4.70;;;;;;;13.27;62.70;95781.44;5157647;27;20202;-69
2023/10/07 00:33:30;;;;;;;5.93;4.68;;;;;;;13.23;63.04;95776.59;5157435;27;20586;-69
2023/10/07 00:36:04;;;;;;;5.47;4.72;;;;;;;13.19;62.64;95774.88;5157998;27;20194;-68
2023/10/07 00:38:38;;;;;;;6.70;4.97;;;;;;;13.13;62.96;95774.31;5156860;27;20217;-69
2023/10/07 00:41:07;;;;;;;6.63;4.70;;;;;;;13.10;63.00;95779.75;5156598;27;20198;-69
2023/10/07 00:43:36;;;;;;;6.72;4.75;;;;;;;13.10;63.14;95772.25;5157240;27;20221;-68
2023/10/07 00:46:10;;;;;;;6.25;4.82;;;;;;;13.08;63.58;95773.78;5157254;27;20205;-69
2023/10/07 00:48:48;;;;;;;6.22;4.80;;;;;;;13.07;63.43;95766.59;5156739;27;20225;-68
2023/10/07 00:51:24;;;;;;;7.20;5.30;;;;;;;13.09;63.50;95762.31;5156610;27;20212;-68
2023/10/07 00:54:00;;;;;;;6.30;5.25;;;;;;;13.08;63.18;95757.94;5156382;27;20308;-68
2023/10/07 00:56:33;;;;;;;8.55;5.60;;;;;;;13.02;63.18;95759.34;5157324;27;20526;-68
2023/10/07 00:59:07;;;;;;;9.18;5.93;;;;;;;13.00;63.12;95765.25;5157000;27;20186;-68
2023/10/07 01:01:36;;;;;;;11.15;6.53;;;;;;;12.96;63.65;95767.13;5156921;27;20195;-69
2023/10/07 01:04:07;;;;;;;12.32;7.60;;;;;;;12.94;63.32;95765.84;5156917;27;20222;-69
2023/10/07 01:06:38;;;;;;;10.90;6.28;;;;;;;12.89;63.70;95764.13;5157412;27;20194;-68
2023/10/07 01:09:22;;;;;;;9.77;6.75;;;;;;;12.89;63.62;95761.38;5157010;27;20502;-69
2023/10/07 01:11:57;;;;;;;9.15;6.05;;;;;;;12.92;63.71;95763.41;5140094;27;20194;-69
2023/10/07 01:14:26;;;;;;;10.75;6.22;;;;;;;12.94;63.68;95760.31;5157080;27;20182;-68
2023/10/07 01:16:56;;;;;;;9.75;6.40;;;;;;;12.93;63.68;95762.28;5156410;27;20232;-68
2023/10/07 01:22:11;;;;;;;9.50;5.85;;;;;;;12.88;63.43;95758.94;5154604;27;20202;-68
2023/10/07 01:24:46;;;;;;;8.20;6.20;;;;;;;12.85;63.73;95765.97;5157450;27;20379;-68
2023/10/07 01:27:27;;;;;;;8.27;5.95;;;;;;;12.80;63.63;95763.47;5156227;27;20208;-68
2023/10/07 01:30:15;;;;;;;7.55;5.65;;;;;;;12.74;63.55;95762.91;5157257;27;20224;-68
2023/10/07 01:33:25;;;;;;;7.60;5.75;;;;;;;12.70;63.81;95761.16;5156407;27;20266;-68
2023/10/07 01:36:06;;;;;;;8.07;6.22;;;;;;;12.66;63.91;95766.59;5155656;27;20205;-69
2023/10/07 01:38:40;;;;;;;7.63;5.63;;;;;;;12.64;63.69;95765.38;5158644;27;20202;-69
2023/10/07 01:41:14;;;;;;;7.78;5.47;;;;;;;12.60;63.90;95770.78;5126037;27;20685;-69
2023/10/07 01:43:45;;;;;;;9.18;5.38;;;;;;;12.58;63.86;95770.31;5160402;27;20202;-69
2023/10/07 01:46:19;;;;;;;7.75;5.88;;;;;;;12.56;64.17;95777.34;5143535;27;20198;-69
2023/10/07 01:48:55;;;;;;;7.70;6.13;;;;;;;12.52;64.32;95764.19;5142864;27;20208;-68
2023/10/07 01:51:26;;;;;;;8.93;6.07;;;;;;;12.45;64.03;95763.97;5160870;27;20523;-68
2023/10/07 01:53:56;;;;;;;9.35;6.28;;;;;;;12.39;63.75;95754.31;5143179;27;20299;-68
2023/10/07 01:56:29;;;;;;;7.80;5.88;;;;;;;12.36;63.85;95760.56;5143527;27;20190;-69
2023/10/07 01:58:57;;;;;;;7.78;5.78;;;;;;;12.34;64.28;95764.81;5159986;27;20208;-68
2023/10/07 02:01:28;;;;;;;7.53;5.38;;;;;;;12.32;64.66;95761.59;5160745;27;20183;-69
2023/10/07 02:03:59;;;;;;;9.70;6.43;;;;;;;12.31;64.49;95759.97;5160694;27;20257;-69
2023/10/07 02:06:28;;;;;;;7.05;5.63;;;;;;;12.32;64.50;95751.34;5160180;27;20238;-68
2023/10/07 02:08:57;;;;;;;7.90;6.07;;;;;;;12.33;64.59;95749.38;5160759;27;20182;-68
2023/10/07 02:11:30;;;;;;;10.13;6.90;;;;;;;12.33;64.76;95752.94;5160640;27;20191;-68
2023/10/07 02:13:58;;;;;;;7.15;6.28;;;;;;;12.33;64.66;95755.72;5160442;27;20193;-69
2023/10/07 02:16:27;;;;;;;8.30;6.28;;;;;;;12.31;64.68;95748.91;5160521;27;20273;-68
2023/10/07 02:19:00;;;;;;;10.18;6.68;;;;;;;12.31;64.98;95744.19;5142300;27;20217;-68
2023/10/07 02:21:29;;;;;;;6.70;6.00;;;;;;;12.33;64.63;95741.06;5161001;27;20201;-68
2023/10/07 02:24:05;;;;;;;9.48;6.65;;;;;;;12.33;64.82;95736.34;5159642;27;20678;-69
2023/10/07 02:26:34;;;;;;;6.95;5.95;;;;;;;12.32;64.72;95747.78;5144348;27;20237;-68
2023/10/07 02:29:07;;;;;;;6.40;5.80;;;;;;;12.25;64.74;95740.84;5160911;27;20194;-68
2023/10/07 02:31:42;;;;;;;7.72;5.30;;;;;;;12.20;65.16;95740.28;5159918;27;20594;-68
2023/10/07 02:34:21;;;;;;;11.07;6.10;;;;;;;12.19;65.01;95744.19;5160261;27;20190;-68
2023/10/07 02:36:52;;;;;;;6.85;5.90;;;;;;;12.14;64.77;95745.25;5159663;27;20591;-68
2023/10/07 02:39:39;;;;;;;7.47;6.03;;;;;;;12.12;64.51;95747.53;5159660;27;20265;-68
2023/10/07 02:42:09;;;;;;;9.75;6.32;;;;;;;12.09;64.59;95752.94;5142279;27;20198;-68
2023/10/07 02:44:41;;;;;;;9.15;5.65;;;;;;;12.01;64.77;95741.66;5142685;27;20194;-68
2023/10/07 02:47:11;;;;;;;7.38;5.50;;;;;;;12.01;64.87;95749.94;5160057;27;20226;-69
2023/10/07 02:49:47;;;;;;;7.25;5.93;;;;;;;12.02;65.11;95742.50;5159341;27;20577;-68
2023/10/07 02:52:16;;;;;;;9.38;5.88;;;;;;;11.97;64.75;95749.03;5160047;27;20182;-68
2023/10/07 02:54:44;;;;;;;7.45;5.45;;;;;;;11.88;65.00;95742.81;5159831;27;20198;-68
2023/10/07 02:57:24;;;;;;;7.93;5.68;;;;;;;11.84;65.18;95747.44;5159648;27;20179;-68
2023/10/07 02:59:52;;;;;;;5.97;5.35;;;;;;;11.82;65.34;95750.50;5141483;27;20196;-68
2023/10/07 03:02:36;;;;;;;6.20;5.13;;;;;;;11.78;65.57;95754.31;5141276;27;20186;-68
2023/10/07 03:05:14;;;;;;;6.25;5.13;;;;;;;11.74;65.61;95753.38;5140960;27;20691;-68
2023/10/07 03:08:01;;;;;;;7.32;4.93;;;;;;;11.75;65.59;95754.97;5140825;27;20190;-68
2023/10/07 03:10:37;;;;;;;7.75;5.30;;;;;;;11.76;65.59;95753.81;5141865;27;20202;-69
2023/10/07 03:13:06;;;;;;;6.30;4.90;;;;;;;11.72;65.78;95759.22;5159017;27;20557;-68
2023/10/07 03:15:59;;;;;;;8.43;4.60;;;;;;;11.70;65.26;95755.22;5159109;27;20533;-68
2023/10/07 03:18:30;;;;;;;5.70;4.78;;;;;;;11.67;65.46;95755.91;5144566;27;20615;-69
2023/10/07 03:21:10;;;;;;;4.70;3.95;;;;;;;11.66;65.37;95762.59;5159687;27;20247;-69
2023/10/07 03:23:45;;;;;;;5.22;4.63;;;;;;;11.65;65.71;95763.72;5158755;27;20183;-69
2023/10/07 03:26:17;;;;;;;7.05;5.00;;;;;;;11.64;65.45;95765.66;5141108;27;20592;-69
2023/10/07 03:28:52;;;;;;;6.85;4.78;;;;;;;11.66;65.16;95760.63;5140687;27;20202;-69
2023/10/07 03:31:20;;;;;;;6.00;4.32;;;;;;;11.64;65.07;95760.16;5158587;27;20606;-69
2023/10/07 03:33:51;;;;;;;6.35;5.10;;;;;;;11.64;65.12;95759.34;5140469;27;20197;-70
2023/10/07 03:36:41;;;;;;;6.90;4.95;;;;;;;11.61;65.19;95757.25;5158461;27;20218;-68
2023/10/07 03:39:23;;;;;;;5.68;4.75;;;;;;;11.56;65.17;95756.34;5140525;27;20521;-68
2023/10/07 03:41:55;;;;;;;7.82;5.15;;;;;;;11.50;65.21;95760.47;5140523;27;20193;-69
2023/10/07 03:44:26;;;;;;;8.52;4.95;;;;;;;11.49;65.37;95763.56;5158680;27;20197;-69
2023/10/07 03:46:56;;;;;;;6.57;4.95;;;;;;;11.46;65.48;95762.28;5141162;27;20259;-69
2023/10/07 03:49:33;;;;;;;6.60;4.85;;;;;;;11.42;65.25;95758.59;5158617;27;20179;-68
2023/10/07 03:52:06;;;;;;;6.93;4.78;;;;;;;11.42;65.52;95753.09;5158158;27;20602;-68
2023/10/07 03:54:40;;;;;;;7.13;5.40;;;;;;;11.41;65.16;95761.72;5158497;27;20192;-68
2023/10/07 03:57:09;;;;;;;7.07;5.90;;;;;;;11.38;65.58;95762.41;5140140;27;20209;-68
2023/10/07 03:59:39;;;;;;;6.00;5.10;;;;;;;11.34;65.05;95756.75;5140055;27;20215;-68
2023/10/07 04:02:34;;;;;;;7.40;5.00;;;;;;;11.32;65.53;95761.78;5157950;27;20586;-68
2023/10/07 04:05:10;;;;;;;7.65;5.20;;;;;;;11.30;65.53;95769.63;5139716;27;20241;-68
2023/10/07 04:07:38;;;;;;;4.93;4.05;;;;;;;11.24;65.56;95763.50;5140082;27;20201;-68
2023/10/07 04:10:15;;;;;;;6.63;5.20;;;;;;;11.23;65.48;95766.63;5158217;27;20175;-68
2023/10/07 04:12:47;;;;;;;6.15;4.90;;;;;;;11.22;65.82;95770.50;5158455;27;20243;-68
2023/10/07 04:15:28;;;;;;;7.68;5.05;;;;;;;11.25;65.53;95780.88;5158418;27;20247;-68
2023/10/07 04:17:56;;;;;;;6.93;4.85;;;;;;;11.22;65.67;95776.03;5140131;27;20300;-69
2023/10/07 04:20:42;;;;;;;6.03;4.50;;;;;;;11.19;65.96;95780.28;5158219;27;20210;-69
2023/10/07 04:23:09;;;;;;;7.35;5.05;;;;;;;11.20;66.02;95772.81;5157621;27;20220;-69
2023/10/07 04:25:47;;;;;;;9.73;5.50;;;;;;;11.18;66.12;95777.84;5139951;27;20202;-69
2023/10/07 04:28:15;;;;;;;6.55;5.03;;;;;;;11.17;66.04;95774.28;5140201;27;20194;-69
2023/10/07 04:30:53;;;;;;;8.40;5.22;;;;;;;11.10;66.11;95768.50;5157440;27;20640;-68
2023/10/07 04:33:25;;;;;;;7.18;6.10;;;;;;;11.09;66.06;95762.19;5139887;27;20250;-67
2023/10/07 04:35:57;;;;;;;8.68;5.45;;;;;;;11.09;66.21;95761.38;5140383;27;20212;-68
2023/10/07 04:38:39;;;;;;;7.30;5.72;;;;;;;11.07;65.98;95756.22;5139553;27;20222;-68
2023/10/07 04:43:59;;;;;;;7.57;5.55;;;;;;;11.11;66.44;95758.28;5157297;27;20181;-67
2023/10/07 04:46:29;;;;;;;11.57;6.75;;;;;;;11.09;66.36;95761.38;5156980;27;20198;-67
2023/10/07 04:48:57;;;;;;;8.70;6.18;;;;;;;11.05;66.11;95758.50;5156075;27;20729;-67
2023/10/07 04:51:46;;;;;;;9.15;6.25;;;;;;;11.03;66.58;95759.97;5157288;27;20190;-67
2023/10/07 04:54:20;;;;;;;7.97;5.57;;;;;;;11.02;67.05;95753.66;5157352;27;20269;-67
2023/10/07 04:56:58;;;;;;;9.23;5.28;;;;;;;11.11;67.08;95756.34;5157315;27;20337;-67
2023/10/07 04:59:25;;;;;;;8.75;5.68;;;;;;;11.14;66.44;95766.69;5157337;27;20202;-67
2023/10/07 05:02:01;;;;;;;8.40;5.57;;;;;;;11.13;66.41;95764.28;5139362;27;20202;-68
2023/10/07 05:04:29;;;;;;;9.25;6.28;;;;;;;11.12;66.63;95770.94;5122243;27;20233;-67
2023/10/07 05:06:56;;;;;;;8.85;5.68;;;;;;;11.12;66.64;95773.72;5139163;27;20197;-66
2023/10/07 05:09:33;;;;;;;6.10;5.32;;;;;;;11.15;66.67;95770.25;5156757;27;20190;-66
2023/10/07 05:12:01;;;;;;;9.20;5.20;;;;;;;11.19;66.50;95773.97;5138688;27;20244;-67
2023/10/07 05:14:28;;;;;;;11.65;5.65;;;;;;;11.18;66.81;95789.69;5138793;27;20293;-66
2023/10/07 05:16:58;;;;;;;7.50;5.00;;;;;;;11.18;66.26;95788.91;5139697;27;20288;-67
2023/10/07 05:19:27;;;;;;;7.20;5.43;;;;;;;11.15;66.55;95787.66;5156983;27;20202;-67
2023/10/07 05:22:14;;;;;;;8.32;5.57;;;;;;;11.17;66.43;95784.53;5138936;27;20202;-67
2023/10/07 05:24:46;;;;;;;8.35;5.38;;;;;;;11.21;66.79;95791.00;5138795;27;20186;-66
2023/10/07 05:27:17;;;;;;;7.57;5.53;;;;;;;11.22;66.91;95795.34;5157290;27;20257;-66
2023/10/07 05:29:46;;;;;;;9.52;6.00;;;;;;;11.25;66.68;95794.69;5139369;27;20206;-68
2023/10/07 05:32:16;;;;;;;6.53;5.13;;;;;;;11.27;66.84;95793.19;5139100;27;20539;-65
2023/10/07 05:34:45;;;;;;;7.45;5.72;;;;;;;11.32;67.13;95795.75;5138406;27;20609;-66
2023/10/07 05:37:14;;;;;;;8.60;5.63;;;;;;;11.31;67.14;95802.41;5157215;27;20186;-65
2023/10/07 05:39:44;;;;;;;8.05;5.85;;;;;;;11.33;67.07;95802.91;5156726;27;20206;-65
2023/10/07 05:42:11;;;;;;;8.27;6.07;;;;;;;11.38;67.19;95806.59;5138587;27;20200;-66
2023/10/07 05:44:39;;;;;;;9.80;6.55;;;;;;;11.42;67.52;95808.31;5139222;27;20197;-65
2023/10/07 05:47:08;;;;;;;8.05;6.03;;;;;;;11.47;67.27;95805.34;5138994;27;20195;-65
2023/10/07 05:49:38;;;;;;;6.13;4.97;;;;;;;11.53;67.40;95808.72;5139422;27;20214;-65
2023/10/07 05:52:05;;;;;;;7.32;5.40;;;;;;;11.60;67.68;95810.91;5138765;27;20236;-65
2023/10/07 05:54:32;;;;;;;7.53;5.68;;;;;;;11.64;67.94;95811.84;5138655;27;20212;-66
2023/10/07 05:57:04;;;;;;;11.57;6.13;;;;;;;11.67;67.31;95814.72;5138692;27;20198;-65
2023/10/07 05:59:33;;;;;;;7.97;6.20;;;;;;;11.71;67.10;95820.38;5157088;27;20291;-65
2023/10/07 06:02:01;;;;;;;7.60;5.47;;;;;;;11.72;66.85;95820.03;5156943;27;20220;-65
2023/10/07 06:04:28;;;;;;;7.40;5.78;;;;;;;11.75;67.07;95818.53;5138350;27;20202;-65
2023/10/07 06:06:58;;;;;;;8.27;5.82;;;;;;;11.81;67.46;95819.94;5138106;27;20606;-66
2023/10/07 06:09:25;;;;;;;7.90;5.55;;;;;;;11.82;66.84;95819.59;5156909;27;20483;-65
2023/10/07 06:11:53;;;;;;;6.22;5.63;;;;;;;11.84;66.81;95816.53;5157193;27;20186;-66
2023/10/07 06:14:20;;;;;;;7.63;6.13;;;;;;;11.89;67.04;95810.78;5138498;27;20221;-65
2023/10/07 06:16:52;;;;;;;9.55;6.15;;;;;;;11.91;67.14;95813.19;5156747;27;20190;-65
2023/10/07 06:19:19;;;;;;;7.05;5.97;;;;;;;11.93;66.48;95811.69;5156454;27;20300;-65
2023/10/07 06:21:50;;;;;;;8.05;5.97;;;;;;;11.96;66.63;95810.22;5156209;27;20178;-65
2023/10/07 06:24:23;;;;;;;9.48;6.70;;;;;;;12.02;66.51;95815.19;5156237;27;20559;-66
2023/10/07 06:26:53;;;;;;;7.90;6.90;;;;;;;12.07;66.37;95816.91;5141961;27;20187;-65
2023/10/07 06:29:20;;;;;;;9.43;6.80;;;;;;;12.11;66.07;95817.03;5160510;27;20183;-65
2023/10/07 06:31:55;;;;;;;8.02;6.15;;;;;;;12.14;66.29;95814.38;5142644;27;20198;-65
2023/10/07 06:34:32;;;;;;;12.23;7.40;;;;;;;12.19;65.83;95810.56;5160119;27;20220;-66
2023/10/07 06:37:01;;;;;;;9.57;7.05;;;;;;;12.26;66.09;95819.91;5142579;27;20507;-66
2023/10/07 06:39:32;;;;;;;38.00;11.25;;;;;;;12.44;66.35;95822.44;5160534;27;20289;-66
2023/10/07 06:42:00;;;;;;;39.20;11.80;;;;;;;12.59;65.84;95820.94;5141744;27;20198;-65
2023/10/07 06:44:30;;;;;;;9.23;8.32;;;;;;;12.64;64.94;95826.25;5159663;27;20602;-65
2023/10/07 06:47:02;;;;;;;9.05;6.47;;;;;;;12.68;64.91;95827.16;5159655;27;20183;-66
2023/10/07 06:49:34;;;;;;;12.63;7.65;;;;;;;12.71;64.86;95820.94;5141849;27;20198;-67
2023/10/07 06:52:03;;;;;;;11.48;7.57;;;;;;;12.79;65.25;95813.66;5124835;27;20202;-66
2023/10/07 06:54:33;;;;;;;12.65;8.32;;;;;;;12.95;65.35;95828.38;5141530;27;20194;-65
2023/10/07 06:57:08;;;;;;;10.05;8.10;;;;;;;13.08;65.26;95829.16;5159715;27;20202;-65
2023/10/07 06:59:39;;;;;;;8.15;6.97;;;;;;;13.06;64.70;95826.72;5141679;27;20214;-66
2023/10/07 07:02:11;;;;;;;13.95;8.15;;;;;;;13.12;65.47;95830.06;5141796;27;20262;-66
2023/10/07 07:04:41;;;;;;;11.35;7.82;;;;;;;13.23;65.48;95823.69;5141328;27;20202;-66
2023/10/07 07:07:11;;;;;;;9.68;8.02;;;;;;;13.32;65.07;95822.75;5159165;27;20624;-66
2023/10/07 07:09:50;;;;;;;11.85;7.78;;;;;;;13.32;64.61;95819.97;5140970;27;20673;-66
2023/10/07 07:12:21;;;;;;;12.10;8.70;;;;;;;13.38;64.34;95810.25;5141711;27;20506;-66
2023/10/07 07:14:51;;;;;;;11.25;8.90;;;;;;;13.46;64.06;95801.78;5141977;27;20198;-66
2023/10/07 07:17:36;;;;;;;9.52;8.55;;;;;;;13.53;63.80;95800.38;5141739;27;20289;-66
2023/10/07 07:22:52;;;;;;;10.63;8.13;;;;;;;13.71;63.98;95790.56;5158961;27;20167;-68
2023/10/07 07:25:29;;;;;;;9.35;7.93;;;;;;;13.85;64.13;95806.78;5159280;27;20202;-73
2023/10/07 07:27:58;;;;;;;8.98;8.02;;;;;;;13.94;63.18;95804.63;5140881;27;20201;-67
2023/10/07 07:30:29;;;;;;;10.40;7.93;;;;;;;14.03;63.32;95810.03;5141386;27;20198;-66
2023/10/07 07:32:59;;;;;;;9.27;7.93;;;;;;;14.17;63.29;95802.88;5158669;27;20293;-71
2023/10/07 07:35:39;;;;;;;10.30;8.10;;;;;;;14.31;62.73;95801.63;5140406;27;20199;-66
2023/10/07 07:38:18;;;;;;;8.32;7.50;;;;;;;14.35;62.53;95802.50;5140353;27;20631;-66
2023/10/07 07:40:49;;;;;;;9.13;8.23;;;;;;;14.35;62.01;95800.53;5158440;27;20202;-66
2023/10/07 07:43:19;;;;;;;10.13;8.30;;;;;;;14.39;62.44;95798.66;5158738;27;20186;-67
2023/10/07 07:45:48;;;;;;;10.55;8.10;;;;;;;14.44;61.97;95801.13;5141013;27;20195;-67
2023/10/07 07:48:16;;;;;;;10.18;8.23;;;;;;;14.51;61.98;95792.22;5158275;27;20178;-67
2023/10/07 07:50:43;;;;;;;8.32;7.30;;;;;;;14.56;61.67;95786.41;5140473;27;20197;-66
2023/10/07 07:53:12;;;;;;;10.65;7.82;;;;;;;14.58;60.58;95781.28;5140767;27;20229;-66
2023/10/07 07:55:43;;;;;;;10.60;7.85;;;;;;;14.62;60.54;95784.94;5140570;27;20221;-67
2023/10/07 07:58:12;;;;;;;10.27;7.15;;;;;;;14.68;60.69;95777.94;5140503;27;20193;-66
2023/10/07 08:00:44;;;;;;;10.30;7.90;;;;;;;14.82;60.95;95776.66;5140293;27;20214;-66
2023/10/07 08:03:13;;;;;;;10.82;8.25;;;;;;;15.02;60.70;95780.25;5140688;27;20240;-66
2023/10/07 08:05:42;;;;;;;11.80;7.75;;;;;;;15.20;60.40;95770.31;5139726;27;20317;-65
2023/10/07 08:08:24;;;;;;;8.57;7.78;;;;;;;15.32;60.14;95781.28;5158257;27;20218;-66
2023/10/07 08:10:54;;;;;;;9.25;8.18;;;;;;;15.40;59.69;95779.47;5158051;27;20199;-66
2023/10/07 08:13:24;;;;;;;11.52;8.75;;;;;;;15.45;58.62;95783.91;5157634;27;20199;-67
2023/10/07 08:15:52;;;;;;;10.38;8.63;;;;;;;15.47;59.18;95785.16;5157342;27;20620;-67
2023/10/07 08:18:22;;;;;;;9.73;8.73;;;;;;;15.54;58.87;95785.31;5157410;27;20204;-66
2023/10/07 08:20:56;;;;;;;10.90;8.90;;;;;;;15.72;57.94;95780.09;5156988;27;20694;-66
2023/10/07 08:23:28;;;;;;;11.27;8.90;;;;;;;15.79;57.74;95783.00;5157021;27;20219;-67
2023/10/07 08:25:58;;;;;;;11.95;8.45;;;;;;;15.82;57.27;95776.69;5156763;27;20205;-67
2023/10/07 08:28:41;;;;;;;11.35;8.50;;;;;;;15.86;56.96;95772.00;5156590;27;20639;-66
2023/10/07 08:31:13;;;;;;;10.10;8.88;;;;;;;15.95;56.91;95766.22;5158138;27;20179;-66
2023/10/07 08:33:41;;;;;;;10.63;8.40;;;;;;;16.07;56.85;95771.59;5157886;27;20196;-66
2023/10/07 08:36:08;;;;;;;8.63;7.78;;;;;;;16.18;56.39;95770.97;5157706;27;20281;-66
2023/10/07 08:38:43;;;;;;;9.40;8.10;;;;;;;16.28;56.53;95768.34;5157430;27;20237;-67
2023/10/07 08:41:16;;;;;;;10.85;9.10;;;;;;;16.33;56.59;95756.09;5157525;27;20186;-66
2023/10/07 08:44:01;;;;;;;11.45;8.13;;;;;;;16.43;55.76;95763.81;5157691;27;20297;-66
2023/10/07 08:46:29;;;;;;;11.18;8.40;;;;;;;16.49;56.06;95753.97;5158016;27;20641;-66
2023/10/07 08:48:57;;;;;;;10.68;9.57;;;;;;;16.59;55.62;95749.72;5156105;27;20202;-66
2023/10/07 08:51:24;;;;;;;9.68;8.68;;;;;;;16.64;55.40;95746.63;5158270;27;20209;-66
2023/10/07 08:53:56;;;;;;;9.82;8.68;;;;;;;16.70;54.47;95738.75;5157660;27;20202;-67
2023/10/07 08:56:25;;;;;;;9.50;8.60;;;;;;;16.72;54.63;95739.19;5157380;27;20277;-66
2023/10/07 08:58:54;;;;;;;10.70;8.20;;;;;;;16.77;55.03;95736.88;5156809;27;20190;-67
2023/10/07 09:01:24;;;;;;;9.82;8.18;;;;;;;16.89;54.33;95732.28;5157584;27;20285;-67
2023/10/07 09:03:56;;;;;;;10.32;8.52;;;;;;;17.02;54.10;95734.44;5157371;27;20193;-66
2023/10/07 09:06:27;;;;;;;9.93;8.10;;;;;;;17.19;53.57;95726.69;5156528;27;20252;-66
2023/10/07 09:09:06;;;;;;;8.57;7.32;;;;;;;17.30;53.28;95733.19;5156691;27;20530;-66
2023/10/07 09:11:36;;;;;;;11.15;8.32;;;;;;;17.50;53.20;95719.88;5156671;27;20198;-66
2023/10/07 09:14:07;;;;;;;10.50;7.72;;;;;;;17.54;53.58;95726.31;5157590;27;20223;-66
2023/10/07 09:16:35;;;;;;;9.13;7.72;;;;;;;17.56;53.06;95723.94;5140252;27;20178;-66
2023/10/07 09:19:10;;;;;;;9.73;8.60;;;;;;;17.61;53.75;95719.97;5157287;27;20188;-67
2023/10/07 09:21:38;;;;;;;9.65;8.75;;;;;;;17.74;52.55;95724.91;5157485;27;20182;-67
2023/10/07 09:24:13;;;;;;;8.20;7.03;;;;;;;17.85;51.68;95718.66;5139786;27;20222;-67
2023/10/07 09:26:56;;;;;;;7.15;6.43;;;;;;;17.83;50.42;95718.25;5139964;27;20217;-66
2023/10/07 09:29:32;;;;;;;8.43;7.00;;;;;;;17.83;50.63;95721.84;5157442;27;20258;-66
2023/10/07 09:32:06;;;;;;;7.20;6.45;;;;;;;17.83;50.84;95726.59;5139176;27;20193;-68
2023/10/07 09:34:44;;;;;;;7.72;6.93;;;;;;;17.85;50.07;95724.25;5139781;27;20258;-67
2023/10/07 09:37:13;;;;;;;8.02;7.13;;;;;;;17.86;50.20;95712.69;5139159;27;20289;-67
2023/10/07 09:39:45;;;;;;;8.07;6.65;;;;;;;17.94;50.34;95717.19;5157096;27;20542;-67
2023/10/07 09:42:26;;;;;;;11.27;6.50;;;;;;;18.00;50.24;95715.63;5157138;27;20273;-66
2023/10/07 09:45:00;;;;;;;7.68;6.60;;;;;;;18.38;49.27;95712.75;5138623;27;20243;-67
2023/10/07 09:47:33;;;;;;;8.27;6.40;;;;;;;18.45;50.10;95715.59;5157423;27;20209;-66
2023/10/07 09:49:59;;;;;;;7.78;6.25;;;;;;;18.50;48.69;95713.22;5156867;27;20224;-66
2023/10/07 09:52:41;;;;;;;8.18;5.55;;;;;;;18.66;49.55;95698.94;5157149;27;20592;-67
2023/10/07 09:55:31;;;;;;;6.53;5.88;;;;;;;18.66;49.11;95701.72;5138678;27;20213;-66
2023/10/07 09:58:11;;;;;;;7.90;6.32;;;;;;;18.62;47.43;95695.31;5156917;27;20185;-67
2023/10/07 10:00:47;;;;;;;10.23;5.72;;;;;;;18.63;48.87;95690.56;5142390;27;20218;-66
2023/10/07 10:03:46;;;;;;;8.00;5.80;;;;;;;18.84;48.55;95684.31;5142965;27;20198;-66
2023/10/07 10:06:25;;;;;;;7.25;5.90;;;;;;;18.92;47.93;95675.56;5142082;27;20426;-66
2023/10/07 10:08:57;;;;;;;7.25;5.63;;;;;;;19.08;47.80;95677.22;5143406;27;20206;-66
2023/10/07 10:11:31;;;;;;;7.63;5.78;;;;;;;19.13;47.97;95671.25;5143023;27;20289;-67
2023/10/07 10:14:16;;;;;;;8.65;5.43;;;;;;;19.28;47.43;95675.72;5160401;27;20201;-66
2023/10/07 10:16:44;;;;;;;6.38;5.25;;;;;;;19.42;46.83;95669.34;5160881;27;20187;-66
2023/10/07 10:19:22;;;;;;;9.57;5.35;;;;;;;19.43;47.71;95666.16;5160364;27;20641;-67
2023/10/07 10:21:51;;;;;;;5.68;5.00;;;;;;;19.53;46.00;95650.59;5160694;27;20196;-67
2023/10/07 10:24:19;;;;;;;7.10;5.22;;;;;;;19.70;46.13;95640.66;5160822;27;20189;-66
2023/10/07 10:26:46;;;;;;;5.88;5.28;;;;;;;19.81;45.92;95637.88;5142153;27;20234;-67
2023/10/07 10:29:25;;;;;;;7.55;5.03;;;;;;;19.83;44.94;95635.47;5142437;27;20204;-67
2023/10/07 10:31:58;;;;;;;5.25;4.75;;;;;;;19.85;46.08;95631.06;5160201;27;20541;-67
2023/10/07 10:34:26;;;;;;;5.88;5.00;;;;;;;19.91;45.84;95621.06;5160662;27;20267;-66
2023/10/07 10:36:56;;;;;;;7.35;5.47;;;;;;;19.89;45.34;95617.06;5160409;27;20225;-66
2023/10/07 10:39:25;;;;;;;6.43;5.03;;;;;;;19.94;45.11;95613.88;5142492;27;20544;-66
2023/10/07 10:41:55;;;;;;;6.53;4.85;;;;;;;19.99;45.46;95598.69;5141870;27;20251;-67
2023/10/07 10:44:22;;;;;;;5.28;4.50;;;;;;;19.97;45.55;95596.25;5142714;27;20183;-67
2023/10/07 10:46:56;;;;;;;5.53;4.45;;;;;;;19.93;45.77;95593.50;5160226;27;20193;-67
2023/10/07 10:49:23;;;;;;;6.70;4.50;;;;;;;20.02;45.26;95583.88;5141755;27;20194;-67
2023/10/07 10:51:55;;;;;;;6.38;4.72;;;;;;;20.10;44.80;95582.66;5141968;27;20202;-67
2023/10/07 10:54:24;;;;;;;4.85;4.43;;;;;;;20.01;44.21;95573.84;5159606;27;20561;-67
2023/10/07 10:56:55;;;;;;;5.10;4.43;;;;;;;20.02;44.37;95564.28;5141864;27;20208;-67
2023/10/07 10:59:34;;;;;;;5.50;4.25;;;;;;;20.25;44.63;95567.41;5142404;27;20227;-66
2023/10/07 11:02:05;;;;;;;4.95;4.43;;;;;;;20.46;43.68;95565.78;5141291;27;20803;-66
2023/10/07 11:04:32;;;;;;;6.57;4.47;;;;;;;20.46;43.18;95558.16;5141253;27;20203;-67
2023/10/07 11:07:00;;;;;;;6.30;4.50;;;;;;;20.48;43.37;95546.53;5141339;27;20294;-67
2023/10/07 11:09:33;;;;;;;8.70;4.40;;;;;;;20.43;43.99;95551.38;5141962;27;20229;-66
2023/10/07 11:12:08;;;;;;;5.30;4.45;;;;;;;20.39;43.42;95541.38;5140623;27;20201;-67
2023/10/07 11:14:38;;;;;;;7.13;4.93;;;;;;;20.39;43.13;95538.56;5141892;27;20198;-67
2023/10/07 11:17:09;;;;;;;5.80;3.83;;;;;;;20.38;43.04;95534.97;5141896;27;20210;-67
2023/10/07 11:19:42;;;;;;;5.18;4.20;;;;;;;20.41;42.84;95530.59;5141089;27;20194;-67
2023/10/07 11:22:12;;;;;;;5.22;4.00;;;;;;;20.47;42.12;95530.94;5159502;27;20198;-66
2023/10/07 11:24:40;;;;;;;5.10;4.07;;;;;;;20.52;42.29;95522.16;5141053;27;20281;-66
2023/10/07 11:27:08;;;;;;;5.90;4.43;;;;;;;20.60;41.65;95518.13;5159176;27;20174;-66
2023/10/07 11:29:36;;;;;;;6.35;4.18;;;;;;;20.75;40.61;95510.44;5141072;27;20198;-66
2023/10/07 11:32:06;;;;;;;5.60;4.45;;;;;;;20.85;41.15;95504.00;5141463;27;20206;-66
2023/10/07 11:34:38;;;;;;;5.10;4.53;;;;;;;20.94;40.97;95503.53;5140961;27;20232;-66
2023/10/07 11:37:09;;;;;;;6.72;4.72;;;;;;;20.92;40.22;95501.94;5140661;27;20252;-66
2023/10/07 11:39:44;;;;;;;5.20;4.00;;;;;;;20.99;40.29;95498.28;5141532;27;20195;-66
2023/10/07 11:42:14;;;;;;;5.10;4.30;;;;;;;21.02;40.01;95491.84;5158856;27;20194;-66
2023/10/07 11:44:42;;;;;;;5.43;4.72;;;;;;;20.99;40.91;95487.06;5158805;27;20187;-66
2023/10/07 11:47:11;;;;;;;5.65;3.95;;;;;;;20.97;39.52;95485.88;5141168;27;20194;-67
2023/10/07 11:49:39;;;;;;;5.28;3.90;;;;;;;20.97;40.03;95477.47;5141424;27;20202;-67
2023/10/07 11:52:07;;;;;;;6.13;4.15;;;;;;;21.00;40.40;95474.66;5140789;27;20217;-67
2023/10/07 11:54:37;;;;;;;7.95;4.10;;;;;;;21.22;40.14;95469.69;5140834;27;20209;-67
2023/10/07 11:57:05;;;;;;;5.55;4.60;;;;;;;21.34;39.61;95465.59;5140894;27;20293;-67
2023/10/07 11:59:33;;;;;;;8.63;4.28;;;;;;;21.54;38.39;95471.47;5140804;27;20214;-67
2023/10/07 12:02:01;;;;;;;5.50;4.32;;;;;;;21.55;38.93;95456.22;5140609;27;20218;-66
2023/10/07 12:04:28;;;;;;;7.10;4.18;;;;;;;21.52;37.98;95455.03;5140266;27;20194;-67